sensor_id;sensor_type;location;lat;lon;timestamp;P1;durP1;ratioP1;P2;durP2;ratioP2
10719;SDS011;5411;58.386;15.560;2023-04-01T00:01:49;2.47;;;1.57;;
10719;SDS011;5411;58.386;15.560;2023-04-01T00:04:18;2.40;;;1.70;;
10719;SDS011;5411;58.386;15.560;2023-04-01T00:06:47;2.80;;;1.60;;
10719;SDS011;5411;58.386;15.560;2023-04-01T00:09:16;4.43;;;2.20;;
10719;SDS011;5411;58.386;15.560;2023-04-01T00:11:46;2.27;;;1.73;;
10719;SDS011;5411;58.386;15.560;2023-04-01T00:14:14;1.63;;;1.40;;
10719;SDS011;5411;58.386;15.560;2023-04-01T00:16:42;1.53;;;1.40;;
10719;SDS011;5411;58.386;15.560;2023-04-01T00:19:11;3.47;;;1.63;;
10719;SDS011;5411;58.386;15.560;2023-04-01T00:21:39;2.13;;;1.90;;
10719;SDS011;5411;58.386;15.560;2023-04-01T00:24:07;1.73;;;1.50;;
10719;SDS011;5411;58.386;15.560;2023-04-01T00:26:35;2.57;;;1.83;;
10719;SDS011;5411;58.386;15.560;2023-04-01T00:29:05;2.30;;;1.50;;
10719;SDS011;5411;58.386;15.560;2023-04-01T00:31:33;2.57;;;1.70;;
10719;SDS011;5411;58.386;15.560;2023-04-01T00:34:02;1.70;;;1.60;;
10719;SDS011;5411;58.386;15.560;2023-04-01T00:36:30;1.70;;;1.60;;
10719;SDS011;5411;58.386;15.560;2023-04-01T00:38:58;2.57;;;2.07;;
10719;SDS011;5411;58.386;15.560;2023-04-01T00:41:29;3.33;;;2.13;;
10719;SDS011;5411;58.386;15.560;2023-04-01T00:44:16;2.30;;;1.70;;
10719;SDS011;5411;58.386;15.560;2023-04-01T00:46:47;2.03;;;1.83;;
10719;SDS011;5411;58.386;15.560;2023-04-01T00:49:16;2.77;;;2.33;;
10719;SDS011;5411;58.386;15.560;2023-04-01T00:51:46;2.00;;;1.80;;
10719;SDS011;5411;58.386;15.560;2023-04-01T00:54:17;2.30;;;2.20;;
10719;SDS011;5411;58.386;15.560;2023-04-01T00:56:48;2.47;;;2.27;;
10719;SDS011;5411;58.386;15.560;2023-04-01T00:59:25;2.10;;;1.80;;
10719;SDS011;5411;58.386;15.560;2023-04-01T01:01:57;3.30;;;2.10;;
10719;SDS011;5411;58.386;15.560;2023-04-01T01:04:26;2.13;;;1.83;;
10719;SDS011;5411;58.386;15.560;2023-04-01T01:06:57;2.10;;;1.90;;
10719;SDS011;5411;58.386;15.560;2023-04-01T01:09:38;2.47;;;1.80;;
10719;SDS011;5411;58.386;15.560;2023-04-01T01:12:15;3.03;;;2.20;;
10719;SDS011;5411;58.386;15.560;2023-04-01T01:14:57;1.87;;;1.70;;
10719;SDS011;5411;58.386;15.560;2023-04-01T01:17:32;2.60;;;1.40;;
10719;SDS011;5411;58.386;15.560;2023-04-01T01:20:21;2.67;;;2.23;;
10719;SDS011;5411;58.386;15.560;2023-04-01T01:26:19;1.87;;;1.23;;
10719;SDS011;5411;58.386;15.560;2023-04-01T01:29:01;2.07;;;1.87;;
10719;SDS011;5411;58.386;15.560;2023-04-01T01:31:44;3.73;;;1.57;;
10719;SDS011;5411;58.386;15.560;2023-04-01T01:34:19;2.30;;;1.77;;
10719;SDS011;5411;58.386;15.560;2023-04-01T01:36:55;1.80;;;1.60;;
10719;SDS011;5411;58.386;15.560;2023-04-01T01:39:26;1.30;;;1.20;;
10719;SDS011;5411;58.386;15.560;2023-04-01T01:41:58;1.60;;;1.50;;
10719;SDS011;5411;58.386;15.560;2023-04-01T01:44:35;1.80;;;1.70;;
10719;SDS011;5411;58.386;15.560;2023-04-01T01:47:05;1.53;;;1.43;;
10719;SDS011;5411;58.386;15.560;2023-04-01T01:49:33;1.73;;;1.63;;
10719;SDS011;5411;58.386;15.560;2023-04-01T01:52:06;1.47;;;1.37;;
10719;SDS011;5411;58.386;15.560;2023-04-01T01:54:34;1.93;;;1.70;;
10719;SDS011;5411;58.386;15.560;2023-04-01T01:57:04;1.50;;;1.40;;
10719;SDS011;5411;58.386;15.560;2023-04-01T01:59:37;1.80;;;1.50;;
10719;SDS011;5411;58.386;15.560;2023-04-01T02:02:08;2.47;;;1.43;;
10719;SDS011;5411;58.386;15.560;2023-04-01T02:04:44;1.70;;;1.60;;
10719;SDS011;5411;58.386;15.560;2023-04-01T02:07:16;3.43;;;1.97;;
10719;SDS011;5411;58.386;15.560;2023-04-01T02:09:48;2.10;;;1.63;;
10719;SDS011;5411;58.386;15.560;2023-04-01T02:12:18;1.53;;;1.43;;
10719;SDS011;5411;58.386;15.560;2023-04-01T02:14:50;1.20;;;1.10;;
10719;SDS011;5411;58.386;15.560;2023-04-01T02:17:21;1.63;;;1.30;;
10719;SDS011;5411;58.386;15.560;2023-04-01T02:19:54;1.50;;;1.37;;
10719;SDS011;5411;58.386;15.560;2023-04-01T02:22:28;2.40;;;2.10;;
10719;SDS011;5411;58.386;15.560;2023-04-01T02:25:01;2.17;;;1.70;;
10719;SDS011;5411;58.386;15.560;2023-04-01T02:27:33;2.57;;;1.30;;
10719;SDS011;5411;58.386;15.560;2023-04-01T02:30:02;2.03;;;1.60;;
10719;SDS011;5411;58.386;15.560;2023-04-01T02:32:31;2.00;;;1.80;;
10719;SDS011;5411;58.386;15.560;2023-04-01T02:35:04;1.97;;;1.40;;
10719;SDS011;5411;58.386;15.560;2023-04-01T02:37:35;1.83;;;1.73;;
10719;SDS011;5411;58.386;15.560;2023-04-01T02:40:06;1.57;;;1.47;;
10719;SDS011;5411;58.386;15.560;2023-04-01T02:42:36;1.40;;;1.30;;
10719;SDS011;5411;58.386;15.560;2023-04-01T02:45:06;2.50;;;1.43;;
10719;SDS011;5411;58.386;15.560;2023-04-01T02:47:36;2.63;;;1.60;;
10719;SDS011;5411;58.386;15.560;2023-04-01T02:50:05;1.77;;;1.20;;
10719;SDS011;5411;58.386;15.560;2023-04-01T02:52:35;1.97;;;1.87;;
10719;SDS011;5411;58.386;15.560;2023-04-01T02:55:04;1.80;;;1.30;;
10719;SDS011;5411;58.386;15.560;2023-04-01T02:57:33;1.73;;;1.63;;
10719;SDS011;5411;58.386;15.560;2023-04-01T03:00:02;2.07;;;1.87;;
10719;SDS011;5411;58.386;15.560;2023-04-01T03:02:31;2.50;;;2.30;;
10719;SDS011;5411;58.386;15.560;2023-04-01T03:04:59;2.47;;;1.40;;
10719;SDS011;5411;58.386;15.560;2023-04-01T03:07:29;3.33;;;1.80;;
10719;SDS011;5411;58.386;15.560;2023-04-01T03:09:58;2.20;;;1.60;;
10719;SDS011;5411;58.386;15.560;2023-04-01T03:12:27;3.23;;;1.97;;
10719;SDS011;5411;58.386;15.560;2023-04-01T03:14:55;5.07;;;1.40;;
10719;SDS011;5411;58.386;15.560;2023-04-01T03:17:35;2.97;;;2.33;;
10719;SDS011;5411;58.386;15.560;2023-04-01T03:20:04;1.70;;;1.60;;
10719;SDS011;5411;58.386;15.560;2023-04-01T03:22:34;4.17;;;1.63;;
10719;SDS011;5411;58.386;15.560;2023-04-01T03:25:05;1.90;;;1.37;;
10719;SDS011;5411;58.386;15.560;2023-04-01T03:27:34;3.07;;;2.07;;
10719;SDS011;5411;58.386;15.560;2023-04-01T03:30:06;1.97;;;1.77;;
10719;SDS011;5411;58.386;15.560;2023-04-01T03:32:36;4.97;;;2.13;;
10719;SDS011;5411;58.386;15.560;2023-04-01T03:35:04;1.30;;;1.20;;
10719;SDS011;5411;58.386;15.560;2023-04-01T03:37:33;1.80;;;1.53;;
10719;SDS011;5411;58.386;15.560;2023-04-01T03:40:01;1.80;;;1.37;;
10719;SDS011;5411;58.386;15.560;2023-04-01T03:42:32;1.70;;;1.53;;
10719;SDS011;5411;58.386;15.560;2023-04-01T03:45:01;2.00;;;1.50;;
10719;SDS011;5411;58.386;15.560;2023-04-01T03:47:32;1.30;;;1.30;;
10719;SDS011;5411;58.386;15.560;2023-04-01T03:50:00;3.07;;;1.60;;
10719;SDS011;5411;58.386;15.560;2023-04-01T03:52:30;3.23;;;1.40;;
10719;SDS011;5411;58.386;15.560;2023-04-01T03:54:58;1.40;;;1.20;;
10719;SDS011;5411;58.386;15.560;2023-04-01T03:57:30;1.50;;;1.40;;
10719;SDS011;5411;58.386;15.560;2023-04-01T03:59:58;1.67;;;1.50;;
10719;SDS011;5411;58.386;15.560;2023-04-01T04:02:26;1.73;;;1.63;;
10719;SDS011;5411;58.386;15.560;2023-04-01T04:04:55;2.27;;;1.30;;
10719;SDS011;5411;58.386;15.560;2023-04-01T04:07:23;1.70;;;1.27;;
10719;SDS011;5411;58.386;15.560;2023-04-01T04:09:51;2.23;;;1.20;;
10719;SDS011;5411;58.386;15.560;2023-04-01T04:12:19;1.67;;;1.40;;
10719;SDS011;5411;58.386;15.560;2023-04-01T04:14:49;1.67;;;1.40;;
10719;SDS011;5411;58.386;15.560;2023-04-01T04:17:17;1.63;;;1.40;;
10719;SDS011;5411;58.386;15.560;2023-04-01T04:19:45;1.60;;;1.50;;
10719;SDS011;5411;58.386;15.560;2023-04-01T04:22:14;2.70;;;1.33;;
10719;SDS011;5411;58.386;15.560;2023-04-01T04:24:42;2.10;;;1.80;;
10719;SDS011;5411;58.386;15.560;2023-04-01T04:27:10;2.00;;;1.40;;
10719;SDS011;5411;58.386;15.560;2023-04-01T04:29:39;2.07;;;1.77;;
10719;SDS011;5411;58.386;15.560;2023-04-01T04:32:08;2.33;;;1.60;;
10719;SDS011;5411;58.386;15.560;2023-04-01T04:34:37;2.13;;;2.00;;
10719;SDS011;5411;58.386;15.560;2023-04-01T04:37:05;4.07;;;1.53;;
10719;SDS011;5411;58.386;15.560;2023-04-01T04:39:34;3.50;;;1.50;;
10719;SDS011;5411;58.386;15.560;2023-04-01T04:42:02;1.27;;;1.17;;
10719;SDS011;5411;58.386;15.560;2023-04-01T04:44:30;2.00;;;1.40;;
10719;SDS011;5411;58.386;15.560;2023-04-01T04:46:58;2.10;;;1.50;;
10719;SDS011;5411;58.386;15.560;2023-04-01T04:49:29;1.63;;;1.53;;
10719;SDS011;5411;58.386;15.560;2023-04-01T04:51:57;1.73;;;1.63;;
10719;SDS011;5411;58.386;15.560;2023-04-01T04:54:25;3.20;;;1.50;;
10719;SDS011;5411;58.386;15.560;2023-04-01T04:56:54;1.73;;;1.50;;
10719;SDS011;5411;58.386;15.560;2023-04-01T04:59:22;1.73;;;1.30;;
10719;SDS011;5411;58.386;15.560;2023-04-01T05:01:50;2.40;;;1.40;;
10719;SDS011;5411;58.386;15.560;2023-04-01T05:04:18;5.37;;;1.67;;
10719;SDS011;5411;58.386;15.560;2023-04-01T05:06:48;2.20;;;1.50;;
10719;SDS011;5411;58.386;15.560;2023-04-01T05:09:18;2.20;;;1.50;;
10719;SDS011;5411;58.386;15.560;2023-04-01T05:11:46;2.40;;;1.40;;
10719;SDS011;5411;58.386;15.560;2023-04-01T05:14:14;1.70;;;1.60;;
10719;SDS011;5411;58.386;15.560;2023-04-01T05:16:43;1.30;;;1.20;;
10719;SDS011;5411;58.386;15.560;2023-04-01T05:19:11;1.30;;;1.20;;
10719;SDS011;5411;58.386;15.560;2023-04-01T05:21:39;1.43;;;1.33;;
10719;SDS011;5411;58.386;15.560;2023-04-01T05:24:09;1.30;;;1.20;;
10719;SDS011;5411;58.386;15.560;2023-04-01T05:26:37;2.00;;;1.40;;
10719;SDS011;5411;58.386;15.560;2023-04-01T05:29:05;1.40;;;1.30;;
10719;SDS011;5411;58.386;15.560;2023-04-01T05:31:34;2.13;;;1.40;;
10719;SDS011;5411;58.386;15.560;2023-04-01T05:34:02;2.13;;;1.20;;
10719;SDS011;5411;58.386;15.560;2023-04-01T05:36:30;1.77;;;1.63;;
10719;SDS011;5411;58.386;15.560;2023-04-01T05:38:58;1.07;;;0.97;;
10719;SDS011;5411;58.386;15.560;2023-04-01T05:41:28;1.47;;;1.30;;
10719;SDS011;5411;58.386;15.560;2023-04-01T05:43:56;1.70;;;1.17;;
10719;SDS011;5411;58.386;15.560;2023-04-01T05:46:26;1.40;;;1.30;;
10719;SDS011;5411;58.386;15.560;2023-04-01T05:48:54;1.23;;;1.23;;
10719;SDS011;5411;58.386;15.560;2023-04-01T05:51:24;1.30;;;1.20;;
10719;SDS011;5411;58.386;15.560;2023-04-01T05:53:52;2.67;;;1.53;;
10719;SDS011;5411;58.386;15.560;2023-04-01T05:56:21;2.03;;;1.40;;
10719;SDS011;5411;58.386;15.560;2023-04-01T05:58:53;1.33;;;1.20;;
10719;SDS011;5411;58.386;15.560;2023-04-01T06:01:22;2.07;;;0.97;;
10719;SDS011;5411;58.386;15.560;2023-04-01T06:03:50;1.70;;;1.50;;
10719;SDS011;5411;58.386;15.560;2023-04-01T06:06:20;1.30;;;1.10;;
10719;SDS011;5411;58.386;15.560;2023-04-01T06:08:52;2.50;;;1.00;;
10719;SDS011;5411;58.386;15.560;2023-04-01T06:11:23;1.53;;;1.30;;
10719;SDS011;5411;58.386;15.560;2023-04-01T06:14:04;1.57;;;1.33;;
10719;SDS011;5411;58.386;15.560;2023-04-01T06:16:46;1.70;;;1.40;;
10719;SDS011;5411;58.386;15.560;2023-04-01T06:19:27;1.27;;;1.13;;
10719;SDS011;5411;58.386;15.560;2023-04-01T06:25:13;1.10;;;1.00;;
10719;SDS011;5411;58.386;15.560;2023-04-01T06:28:07;1.23;;;1.13;;
10719;SDS011;5411;58.386;15.560;2023-04-01T06:31:01;2.60;;;1.37;;
10719;SDS011;5411;58.386;15.560;2023-04-01T06:33:44;1.40;;;1.30;;
10719;SDS011;5411;58.386;15.560;2023-04-01T06:36:32;4.53;;;1.63;;
10719;SDS011;5411;58.386;15.560;2023-04-01T06:39:13;1.50;;;1.40;;
10719;SDS011;5411;58.386;15.560;2023-04-01T06:44:59;1.40;;;1.30;;
10719;SDS011;5411;58.386;15.560;2023-04-01T06:47:47;1.83;;;1.37;;
10719;SDS011;5411;58.386;15.560;2023-04-01T06:50:26;1.90;;;1.70;;
10719;SDS011;5411;58.386;15.560;2023-04-01T06:53:00;1.40;;;1.30;;
10719;SDS011;5411;58.386;15.560;2023-04-01T06:55:36;3.03;;;1.73;;
10719;SDS011;5411;58.386;15.560;2023-04-01T07:00:57;1.87;;;1.40;;
10719;SDS011;5411;58.386;15.560;2023-04-01T07:03:31;2.43;;;1.70;;
10719;SDS011;5411;58.386;15.560;2023-04-01T07:06:02;3.30;;;1.10;;
10719;SDS011;5411;58.386;15.560;2023-04-01T07:08:33;1.20;;;1.10;;
10719;SDS011;5411;58.386;15.560;2023-04-01T07:11:04;1.50;;;1.40;;
10719;SDS011;5411;58.386;15.560;2023-04-01T07:13:34;1.90;;;1.70;;
10719;SDS011;5411;58.386;15.560;2023-04-01T07:16:11;1.93;;;1.30;;
10719;SDS011;5411;58.386;15.560;2023-04-01T07:18:45;3.33;;;1.17;;
10719;SDS011;5411;58.386;15.560;2023-04-01T07:21:21;3.50;;;1.57;;
10719;SDS011;5411;58.386;15.560;2023-04-01T07:23:53;1.57;;;1.30;;
10719;SDS011;5411;58.386;15.560;2023-04-01T07:26:25;2.80;;;1.80;;
10719;SDS011;5411;58.386;15.560;2023-04-01T07:28:56;1.33;;;1.23;;
10719;SDS011;5411;58.386;15.560;2023-04-01T07:31:34;3.63;;;1.60;;
10719;SDS011;5411;58.386;15.560;2023-04-01T07:34:22;2.80;;;1.53;;
10719;SDS011;5411;58.386;15.560;2023-04-01T07:36:54;2.60;;;1.77;;
10719;SDS011;5411;58.386;15.560;2023-04-01T07:39:30;1.77;;;1.50;;
10719;SDS011;5411;58.386;15.560;2023-04-01T07:42:08;1.37;;;1.27;;
10719;SDS011;5411;58.386;15.560;2023-04-01T07:44:45;2.73;;;1.23;;
10719;SDS011;5411;58.386;15.560;2023-04-01T07:47:34;2.97;;;1.30;;
10719;SDS011;5411;58.386;15.560;2023-04-01T07:50:18;2.90;;;1.60;;
10719;SDS011;5411;58.386;15.560;2023-04-01T07:52:55;1.37;;;1.20;;
10719;SDS011;5411;58.386;15.560;2023-04-01T07:55:31;1.57;;;1.40;;
10719;SDS011;5411;58.386;15.560;2023-04-01T07:58:09;2.57;;;1.20;;
10719;SDS011;5411;58.386;15.560;2023-04-01T08:00:47;2.30;;;1.50;;
10719;SDS011;5411;58.386;15.560;2023-04-01T08:03:31;1.97;;;1.77;;
10719;SDS011;5411;58.386;15.560;2023-04-01T08:06:09;1.00;;;1.00;;
10719;SDS011;5411;58.386;15.560;2023-04-01T08:08:46;1.67;;;1.10;;
10719;SDS011;5411;58.386;15.560;2023-04-01T08:11:26;2.40;;;1.20;;
10719;SDS011;5411;58.386;15.560;2023-04-01T08:14:05;2.73;;;1.20;;
10719;SDS011;5411;58.386;15.560;2023-04-01T08:16:42;1.73;;;1.60;;
10719;SDS011;5411;58.386;15.560;2023-04-01T08:19:21;1.20;;;1.10;;
10719;SDS011;5411;58.386;15.560;2023-04-01T08:22:03;2.93;;;1.43;;
10719;SDS011;5411;58.386;15.560;2023-04-01T08:24:38;2.07;;;1.60;;
10719;SDS011;5411;58.386;15.560;2023-04-01T08:27:15;2.43;;;1.37;;
10719;SDS011;5411;58.386;15.560;2023-04-01T08:29:50;1.63;;;1.53;;
10719;SDS011;5411;58.386;15.560;2023-04-01T08:32:28;3.93;;;1.70;;
10719;SDS011;5411;58.386;15.560;2023-04-01T08:35:02;3.80;;;1.50;;
10719;SDS011;5411;58.386;15.560;2023-04-01T08:37:39;2.73;;;1.50;;
10719;SDS011;5411;58.386;15.560;2023-04-01T08:46:53;3.23;;;1.70;;
10719;SDS011;5411;58.386;15.560;2023-04-01T08:52:53;2.77;;;1.50;;
10719;SDS011;5411;58.386;15.560;2023-04-01T08:55:37;3.13;;;1.73;;
10719;SDS011;5411;58.386;15.560;2023-04-01T09:01:14;3.60;;;1.50;;
10719;SDS011;5411;58.386;15.560;2023-04-01T09:04:05;5.33;;;1.60;;
10719;SDS011;5411;58.386;15.560;2023-04-01T09:06:49;2.43;;;1.70;;
10719;SDS011;5411;58.386;15.560;2023-04-01T09:12:55;1.70;;;1.47;;
10719;SDS011;5411;58.386;15.560;2023-04-01T09:15:46;2.83;;;1.60;;
10719;SDS011;5411;58.386;15.560;2023-04-01T09:18:48;1.70;;;1.60;;
10719;SDS011;5411;58.386;15.560;2023-04-01T09:21:46;1.40;;;1.30;;
10719;SDS011;5411;58.386;15.560;2023-04-01T09:24:45;1.40;;;1.30;;
10719;SDS011;5411;58.386;15.560;2023-04-01T09:27:44;5.67;;;1.90;;
10719;SDS011;5411;58.386;15.560;2023-04-01T09:30:27;2.30;;;1.30;;
10719;SDS011;5411;58.386;15.560;2023-04-01T09:36:30;2.80;;;1.23;;
10719;SDS011;5411;58.386;15.560;2023-04-01T09:39:15;1.53;;;1.43;;
10719;SDS011;5411;58.386;15.560;2023-04-01T09:42:06;1.63;;;1.53;;
10719;SDS011;5411;58.386;15.560;2023-04-01T09:44:44;1.87;;;1.77;;
10719;SDS011;5411;58.386;15.560;2023-04-01T09:47:28;1.70;;;1.60;;
10719;SDS011;5411;58.386;15.560;2023-04-01T09:50:20;3.17;;;1.57;;
10719;SDS011;5411;58.386;15.560;2023-04-01T09:53:13;1.63;;;1.50;;
10719;SDS011;5411;58.386;15.560;2023-04-01T09:56:01;1.50;;;1.40;;
10719;SDS011;5411;58.386;15.560;2023-04-01T10:02:02;2.43;;;1.53;;
10719;SDS011;5411;58.386;15.560;2023-04-01T10:08:18;1.87;;;1.67;;
10719;SDS011;5411;58.386;15.560;2023-04-01T10:11:22;1.90;;;1.67;;
10719;SDS011;5411;58.386;15.560;2023-04-01T10:14:24;1.40;;;1.30;;
10719;SDS011;5411;58.386;15.560;2023-04-01T10:20:40;4.03;;;1.70;;
10719;SDS011;5411;58.386;15.560;2023-04-01T10:23:35;1.50;;;1.40;;
10719;SDS011;5411;58.386;15.560;2023-04-01T10:26:33;1.57;;;1.47;;
10719;SDS011;5411;58.386;15.560;2023-04-01T10:44:42;4.50;;;1.53;;
10719;SDS011;5411;58.386;15.560;2023-04-01T10:54:10;1.50;;;1.40;;
10719;SDS011;5411;58.386;15.560;2023-04-01T10:57:09;2.87;;;1.50;;
10719;SDS011;5411;58.386;15.560;2023-04-01T11:03:09;1.43;;;1.30;;
10719;SDS011;5411;58.386;15.560;2023-04-01T11:09:33;2.30;;;1.37;;
10719;SDS011;5411;58.386;15.560;2023-04-01T11:21:59;1.30;;;1.20;;
10719;SDS011;5411;58.386;15.560;2023-04-01T11:28:06;1.77;;;1.50;;
10719;SDS011;5411;58.386;15.560;2023-04-01T11:30:56;2.07;;;1.40;;
10719;SDS011;5411;58.386;15.560;2023-04-01T11:33:36;2.03;;;1.27;;
10719;SDS011;5411;58.386;15.560;2023-04-01T11:36:22;2.67;;;1.50;;
10719;SDS011;5411;58.386;15.560;2023-04-01T11:41:56;1.90;;;1.43;;
10719;SDS011;5411;58.386;15.560;2023-04-01T11:44:38;2.63;;;1.23;;
10719;SDS011;5411;58.386;15.560;2023-04-01T11:47:15;3.07;;;1.20;;
10719;SDS011;5411;58.386;15.560;2023-04-01T11:55:47;2.27;;;1.20;;
10719;SDS011;5411;58.386;15.560;2023-04-01T11:58:31;2.00;;;1.20;;
10719;SDS011;5411;58.386;15.560;2023-04-01T12:01:14;2.23;;;1.40;;
10719;SDS011;5411;58.386;15.560;2023-04-01T12:03:54;1.87;;;1.20;;
10719;SDS011;5411;58.386;15.560;2023-04-01T12:06:35;1.50;;;1.33;;
10719;SDS011;5411;58.386;15.560;2023-04-01T12:09:15;2.60;;;1.40;;
10719;SDS011;5411;58.386;15.560;2023-04-01T12:11:51;1.43;;;1.30;;
10719;SDS011;5411;58.386;15.560;2023-04-01T12:14:32;1.30;;;1.20;;
10719;SDS011;5411;58.386;15.560;2023-04-01T12:17:25;1.00;;;0.90;;
10719;SDS011;5411;58.386;15.560;2023-04-01T12:20:09;1.70;;;1.60;;
10719;SDS011;5411;58.386;15.560;2023-04-01T12:22:55;2.00;;;1.43;;
10719;SDS011;5411;58.386;15.560;2023-04-01T12:28:36;1.27;;;1.17;;
10719;SDS011;5411;58.386;15.560;2023-04-01T12:31:25;1.43;;;1.10;;
10719;SDS011;5411;58.386;15.560;2023-04-01T12:34:09;1.43;;;1.03;;
10719;SDS011;5411;58.386;15.560;2023-04-01T12:36:53;1.63;;;1.30;;
10719;SDS011;5411;58.386;15.560;2023-04-01T12:39:44;1.50;;;1.40;;
10719;SDS011;5411;58.386;15.560;2023-04-01T12:42:38;1.63;;;1.50;;
10719;SDS011;5411;58.386;15.560;2023-04-01T12:45:21;1.10;;;1.10;;
10719;SDS011;5411;58.386;15.560;2023-04-01T12:48:13;0.97;;;0.97;;
10719;SDS011;5411;58.386;15.560;2023-04-01T12:50:59;1.20;;;1.10;;
10719;SDS011;5411;58.386;15.560;2023-04-01T12:53:44;1.13;;;1.03;;
10719;SDS011;5411;58.386;15.560;2023-04-01T12:56:33;1.33;;;1.03;;
10719;SDS011;5411;58.386;15.560;2023-04-01T12:59:19;1.57;;;1.40;;
10719;SDS011;5411;58.386;15.560;2023-04-01T13:02:01;2.40;;;0.90;;
10719;SDS011;5411;58.386;15.560;2023-04-01T13:04:56;1.83;;;1.13;;
10719;SDS011;5411;58.386;15.560;2023-04-01T13:07:44;1.17;;;1.08;;
10719;SDS011;5411;58.386;15.560;2023-04-01T13:10:40;2.70;;;1.10;;
10719;SDS011;5411;58.386;15.560;2023-04-01T13:16:17;0.93;;;0.93;;
10719;SDS011;5411;58.386;15.560;2023-04-01T13:18:54;1.10;;;1.00;;
10719;SDS011;5411;58.386;15.560;2023-04-01T13:21:32;1.10;;;1.00;;
10719;SDS011;5411;58.386;15.560;2023-04-01T13:24:11;1.90;;;1.07;;
10719;SDS011;5411;58.386;15.560;2023-04-01T13:26:50;3.43;;;1.10;;
10719;SDS011;5411;58.386;15.560;2023-04-01T13:29:25;1.10;;;1.10;;
10719;SDS011;5411;58.386;15.560;2023-04-01T13:32:09;1.23;;;0.90;;
10719;SDS011;5411;58.386;15.560;2023-04-01T13:35:03;1.17;;;1.07;;
10719;SDS011;5411;58.386;15.560;2023-04-01T13:37:54;1.53;;;1.13;;
10719;SDS011;5411;58.386;15.560;2023-04-01T13:40:34;2.10;;;0.93;;
10719;SDS011;5411;58.386;15.560;2023-04-01T13:43:25;1.47;;;0.90;;
10719;SDS011;5411;58.386;15.560;2023-04-01T13:46:11;0.80;;;0.80;;
10719;SDS011;5411;58.386;15.560;2023-04-01T13:49:08;0.80;;;0.80;;
10719;SDS011;5411;58.386;15.560;2023-04-01T13:52:16;1.10;;;1.00;;
10719;SDS011;5411;58.386;15.560;2023-04-01T13:54:56;1.07;;;0.70;;
10719;SDS011;5411;58.386;15.560;2023-04-01T13:57:37;1.47;;;1.27;;
10719;SDS011;5411;58.386;15.560;2023-04-01T14:00:20;1.00;;;1.00;;
10719;SDS011;5411;58.386;15.560;2023-04-01T14:03:03;0.97;;;0.97;;
10719;SDS011;5411;58.386;15.560;2023-04-01T14:06:04;0.83;;;0.83;;
10719;SDS011;5411;58.386;15.560;2023-04-01T14:08:42;0.93;;;0.73;;
10719;SDS011;5411;58.386;15.560;2023-04-01T14:11:24;1.30;;;0.80;;
10719;SDS011;5411;58.386;15.560;2023-04-01T14:14:04;0.80;;;0.80;;
10719;SDS011;5411;58.386;15.560;2023-04-01T14:16:55;2.70;;;0.90;;
10719;SDS011;5411;58.386;15.560;2023-04-01T14:19:50;0.70;;;0.70;;
10719;SDS011;5411;58.386;15.560;2023-04-01T14:22:42;1.13;;;0.90;;
10719;SDS011;5411;58.386;15.560;2023-04-01T14:25:23;1.90;;;0.80;;
10719;SDS011;5411;58.386;15.560;2023-04-01T14:28:16;1.20;;;1.20;;
10719;SDS011;5411;58.386;15.560;2023-04-01T14:30:57;0.60;;;0.60;;
10719;SDS011;5411;58.386;15.560;2023-04-01T14:33:38;1.80;;;0.97;;
10719;SDS011;5411;58.386;15.560;2023-04-01T14:39:18;1.97;;;1.13;;
10719;SDS011;5411;58.386;15.560;2023-04-01T14:41:59;0.70;;;0.70;;
10719;SDS011;5411;58.386;15.560;2023-04-01T14:44:57;1.53;;;0.83;;
10719;SDS011;5411;58.386;15.560;2023-04-01T14:47:43;2.13;;;0.93;;
10719;SDS011;5411;58.386;15.560;2023-04-01T14:50:16;1.33;;;1.23;;
10719;SDS011;5411;58.386;15.560;2023-04-01T14:52:50;1.13;;;1.10;;
10719;SDS011;5411;58.386;15.560;2023-04-01T14:55:31;2.20;;;0.80;;
10719;SDS011;5411;58.386;15.560;2023-04-01T14:58:07;1.07;;;0.97;;
10719;SDS011;5411;58.386;15.560;2023-04-01T15:00:45;1.00;;;0.90;;
10719;SDS011;5411;58.386;15.560;2023-04-01T15:03:19;2.30;;;1.17;;
10719;SDS011;5411;58.386;15.560;2023-04-01T15:05:54;2.07;;;0.80;;
10719;SDS011;5411;58.386;15.560;2023-04-01T15:08:43;0.93;;;0.90;;
10719;SDS011;5411;58.386;15.560;2023-04-01T15:11:23;0.93;;;0.80;;
10719;SDS011;5411;58.386;15.560;2023-04-01T15:17:15;1.50;;;0.90;;
10719;SDS011;5411;58.386;15.560;2023-04-01T15:20:02;0.83;;;0.80;;
10719;SDS011;5411;58.386;15.560;2023-04-01T15:22:59;1.97;;;0.90;;
10719;SDS011;5411;58.386;15.560;2023-04-01T15:25:51;1.07;;;0.80;;
10719;SDS011;5411;58.386;15.560;2023-04-01T15:28:36;0.70;;;0.70;;
10719;SDS011;5411;58.386;15.560;2023-04-01T15:31:14;2.47;;;1.30;;
10719;SDS011;5411;58.386;15.560;2023-04-01T15:33:48;1.20;;;0.80;;
10719;SDS011;5411;58.386;15.560;2023-04-01T15:36:29;2.07;;;0.90;;
10719;SDS011;5411;58.386;15.560;2023-04-01T15:39:09;1.63;;;1.23;;
10719;SDS011;5411;58.386;15.560;2023-04-01T15:41:45;1.10;;;0.90;;
10719;SDS011;5411;58.386;15.560;2023-04-01T15:44:46;0.73;;;0.73;;
10719;SDS011;5411;58.386;15.560;2023-04-01T15:47:32;1.13;;;1.03;;
10719;SDS011;5411;58.386;15.560;2023-04-01T15:50:17;1.07;;;0.90;;
10719;SDS011;5411;58.386;15.560;2023-04-01T15:53:03;1.67;;;1.10;;
10719;SDS011;5411;58.386;15.560;2023-04-01T15:55:45;0.80;;;0.80;;
10719;SDS011;5411;58.386;15.560;2023-04-01T15:58:21;1.50;;;1.40;;
10719;SDS011;5411;58.386;15.560;2023-04-01T16:01:07;1.20;;;1.10;;
10719;SDS011;5411;58.386;15.560;2023-04-01T16:03:45;1.13;;;0.83;;
10719;SDS011;5411;58.386;15.560;2023-04-01T16:06:42;1.63;;;0.90;;
10719;SDS011;5411;58.386;15.560;2023-04-01T16:09:26;1.00;;;0.90;;
10719;SDS011;5411;58.386;15.560;2023-04-01T16:12:10;1.33;;;0.90;;
10719;SDS011;5411;58.386;15.560;2023-04-01T16:14:45;2.10;;;0.90;;
10719;SDS011;5411;58.386;15.560;2023-04-01T16:17:28;3.47;;;0.93;;
10719;SDS011;5411;58.386;15.560;2023-04-01T16:20:17;1.50;;;1.30;;
10719;SDS011;5411;58.386;15.560;2023-04-01T16:22:49;1.70;;;0.80;;
10719;SDS011;5411;58.386;15.560;2023-04-01T16:25:26;1.00;;;1.00;;
10719;SDS011;5411;58.386;15.560;2023-04-01T16:28:16;1.20;;;0.83;;
10719;SDS011;5411;58.386;15.560;2023-04-01T16:31:05;1.07;;;1.00;;
10719;SDS011;5411;58.386;15.560;2023-04-01T16:33:46;1.30;;;1.10;;
10719;SDS011;5411;58.386;15.560;2023-04-01T16:36:23;1.37;;;1.23;;
10719;SDS011;5411;58.386;15.560;2023-04-01T16:39:02;1.17;;;1.07;;
10719;SDS011;5411;58.386;15.560;2023-04-01T16:41:41;1.77;;;1.50;;
10719;SDS011;5411;58.386;15.560;2023-04-01T16:44:18;1.43;;;1.03;;
10719;SDS011;5411;58.386;15.560;2023-04-01T16:49:50;1.17;;;0.80;;
10719;SDS011;5411;58.386;15.560;2023-04-01T16:52:35;0.80;;;0.80;;
10719;SDS011;5411;58.386;15.560;2023-04-01T16:55:20;1.87;;;0.90;;
10719;SDS011;5411;58.386;15.560;2023-04-01T16:57:52;0.73;;;0.73;;
10719;SDS011;5411;58.386;15.560;2023-04-01T17:00:26;1.07;;;1.00;;
10719;SDS011;5411;58.386;15.560;2023-04-01T17:03:11;2.43;;;0.87;;
10719;SDS011;5411;58.386;15.560;2023-04-01T17:05:52;2.97;;;1.03;;
10719;SDS011;5411;58.386;15.560;2023-04-01T17:08:31;0.73;;;0.73;;
10719;SDS011;5411;58.386;15.560;2023-04-01T17:11:16;1.50;;;0.97;;
10719;SDS011;5411;58.386;15.560;2023-04-01T17:13:50;1.20;;;0.90;;
10719;SDS011;5411;58.386;15.560;2023-04-01T17:16:36;1.80;;;1.00;;
10719;SDS011;5411;58.386;15.560;2023-04-01T17:19:21;2.20;;;1.50;;
10719;SDS011;5411;58.386;15.560;2023-04-01T17:22:01;1.30;;;0.90;;
10719;SDS011;5411;58.386;15.560;2023-04-01T17:24:40;1.80;;;0.87;;
10719;SDS011;5411;58.386;15.560;2023-04-01T17:27:18;1.30;;;1.20;;
10719;SDS011;5411;58.386;15.560;2023-04-01T17:30:01;3.47;;;0.90;;
10719;SDS011;5411;58.386;15.560;2023-04-01T17:32:40;2.30;;;0.80;;
10719;SDS011;5411;58.386;15.560;2023-04-01T17:35:24;1.23;;;1.13;;
10719;SDS011;5411;58.386;15.560;2023-04-01T17:38:02;2.67;;;0.70;;
10719;SDS011;5411;58.386;15.560;2023-04-01T17:40:44;4.27;;;0.80;;